createdAt,value
2017-10-07T00:00:34.376Z,80.43
2017-10-07T00:01:34.298Z,80.91
2017-10-07T00:02:34.223Z,81.01
2017-10-07T00:03:34.137Z,80.81
2017-10-07T00:04:34.050Z,80.77
2017-10-07T00:05:33.960Z,81.35
2017-10-07T00:06:33.876Z,81.20
2017-10-07T00:07:33.800Z,80.91
2017-10-07T00:08:33.706Z,80.62
2017-10-07T00:09:33.625Z,80.72
2017-10-07T00:10:33.536Z,81.29
2017-10-07T00:11:33.458Z,80.53
2017-10-07T00:12:33.372Z,81.01
2017-10-07T00:13:33.286Z,80.53
2017-10-07T00:14:33.219Z,80.53
2017-10-07T00:15:33.130Z,80.53
2017-10-07T00:16:33.036Z,80.81
2017-10-07T00:17:32.949Z,80.91
2017-10-07T00:18:32.865Z,80.62
2017-10-07T00:19:32.804Z,80.81
2017-10-07T00:20:32.708Z,80.53
2017-10-07T00:21:32.615Z,81.01
2017-10-07T00:22:32.532Z,81.01
2017-10-07T00:23:32.447Z,80.81
2017-10-07T00:24:32.382Z,80.62
2017-10-07T00:25:32.297Z,81.01
2017-10-07T00:26:32.213Z,80.77
2017-10-07T00:27:32.110Z,81.73
2017-10-07T00:28:32.026Z,81.54
2017-10-07T00:29:31.942Z,81.54
2017-10-07T00:30:31.856Z,82.11
2017-10-07T00:31:31.768Z,82.01
2017-10-07T00:32:31.691Z,82.11
2017-10-07T00:33:31.610Z,81.92
2017-10-07T00:34:31.517Z,81.54
2017-10-07T00:35:31.431Z,81.73
2017-10-07T00:36:31.352Z,81.44
2017-10-07T00:37:31.262Z,81.01
2017-10-07T00:38:31.184Z,81.06
2017-10-07T00:39:31.095Z,81.15
2017-10-07T00:40:31.008Z,81.38
2017-10-07T00:41:30.925Z,81.38
2017-10-07T00:42:30.841Z,81.29
2017-10-07T00:43:30.755Z,80.91
2017-10-07T00:44:30.672Z,80.81
2017-10-07T00:45:30.588Z,81.44
2017-10-07T00:46:30.505Z,82.11
2017-10-07T00:47:30.430Z,82.11
2017-10-07T00:48:30.353Z,81.73
2017-10-07T00:49:30.251Z,81.38
2017-10-07T00:50:30.165Z,81.44
2017-10-07T00:51:30.104Z,81.20
2017-10-07T00:52:29.995Z,81.54
2017-10-07T00:53:29.943Z,81.35
2017-10-07T00:54:29.838Z,81.67
2017-10-07T00:55:29.748Z,81.38
2017-10-07T00:56:29.663Z,81.29
2017-10-07T00:57:29.575Z,81.35
2017-10-07T00:58:29.515Z,81.15
2017-10-07T00:59:29.413Z,81.38
2017-10-07T01:00:29.356Z,81.29
2017-10-07T01:01:29.239Z,81.38
2017-10-07T01:02:29.158Z,81.20
2017-10-07T01:03:29.072Z,81.20
2017-10-07T01:04:28.989Z,81.38
2017-10-07T01:05:28.925Z,81.48
2017-10-07T01:06:28.817Z,81.38
2017-10-07T01:07:28.737Z,81.35
2017-10-07T01:08:28.655Z,81.54
2017-10-07T01:09:28.579Z,81.77
2017-10-07T01:10:28.483Z,81.15
2017-10-07T01:11:28.404Z,81.29
2017-10-07T01:12:28.310Z,81.35
2017-10-07T01:13:28.236Z,82.01
2017-10-07T01:14:28.163Z,81.48
2017-10-07T01:15:28.063Z,81.54
2017-10-07T01:16:27.982Z,82.11
2017-10-07T01:17:27.893Z,81.92
2017-10-07T01:18:27.808Z,81.96
2017-10-07T01:19:27.722Z,81.38
2017-10-07T01:20:27.672Z,81.92
2017-10-07T01:21:27.594Z,81.73
2017-10-07T01:22:27.476Z,81.63
2017-10-07T01:23:27.391Z,81.35
2017-10-07T01:24:27.296Z,81.73
2017-10-07T01:25:27.218Z,81.44
2017-10-07T01:26:27.141Z,82.01
2017-10-07T01:27:27.055Z,82.01
2017-10-07T01:28:26.962Z,81.63
2017-10-07T01:29:26.887Z,81.63
2017-10-07T01:30:26.795Z,81.92
2017-10-07T01:31:26.717Z,82.20
2017-10-07T01:32:26.625Z,82.20
2017-10-07T01:33:26.542Z,82.11
2017-10-07T01:34:26.454Z,81.73
2017-10-07T01:35:26.369Z,81.96
2017-10-07T01:36:26.285Z,82.11
2017-10-07T01:37:26.198Z,82.11
2017-10-07T01:38:26.113Z,81.77
2017-10-07T01:39:26.042Z,81.73
2017-10-07T01:40:25.949Z,81.92
2017-10-07T01:41:25.862Z,81.73
2017-10-07T01:42:25.776Z,82.15
2017-10-07T01:43:25.694Z,81.44
2017-10-07T01:44:25.610Z,81.77
2017-10-07T01:45:25.524Z,81.77
2017-10-07T01:46:25.443Z,81.44
2017-10-07T01:47:25.355Z,81.54
2017-10-07T01:48:25.268Z,81.73
2017-10-07T01:49:25.197Z,82.20
2017-10-07T01:50:25.101Z,82.97
2017-10-07T01:51:25.011Z,82.97
2017-10-07T01:52:24.936Z,82.87
2017-10-07T01:53:24.849Z,82.30
2017-10-07T01:54:24.768Z,82.30
2017-10-07T01:55:24.677Z,82.87
2017-10-07T01:56:24.591Z,82.97
2017-10-07T01:57:24.522Z,82.97
2017-10-07T01:58:24.428Z,82.97
2017-10-07T01:59:24.345Z,83.25
2017-10-07T02:00:24.251Z,83.16
2017-10-07T02:01:24.174Z,83.16
2017-10-07T02:02:24.087Z,82.78
2017-10-07T02:03:24.021Z,82.59
2017-10-07T02:04:23.915Z,82.87
2017-10-07T02:05:23.830Z,82.68
2017-10-07T02:06:23.752Z,82.11
2017-10-07T02:07:23.660Z,82.40
2017-10-07T02:08:23.584Z,82.59
2017-10-07T02:09:23.511Z,82.68
2017-10-07T02:10:23.409Z,82.68
2017-10-07T02:11:23.326Z,83.06
2017-10-07T02:12:23.247Z,83.16
2017-10-07T02:13:23.156Z,83.54
2017-10-07T02:14:23.070Z,83.06
2017-10-07T02:15:22.989Z,83.16
2017-10-07T02:16:22.900Z,83.64
2017-10-07T02:17:22.829Z,83.73
2017-10-07T02:18:22.734Z,83.83
2017-10-07T02:19:22.645Z,83.83
2017-10-07T02:20:22.564Z,83.35
2017-10-07T02:21:22.486Z,83.73
2017-10-07T02:22:22.391Z,83.35
2017-10-07T02:23:22.308Z,83.35
2017-10-07T02:24:22.217Z,82.87
2017-10-07T02:25:22.142Z,82.59
2017-10-07T02:26:22.054Z,82.78
2017-10-07T02:27:21.970Z,83.97
2017-10-07T02:28:21.886Z,83.92
2017-10-07T02:29:21.795Z,83.54
2017-10-07T02:30:21.720Z,83.35
2017-10-07T02:31:21.634Z,83.64
2017-10-07T02:32:21.550Z,83.16
2017-10-07T02:33:21.460Z,83.44
2017-10-07T02:34:21.369Z,83.16
2017-10-07T02:35:21.299Z,82.68
2017-10-07T02:36:21.204Z,82.97
2017-10-07T02:37:21.129Z,83.16
2017-10-07T02:38:21.034Z,82.87
2017-10-07T02:39:20.945Z,82.97
2017-10-07T02:40:20.863Z,83.54
2017-10-07T02:41:20.781Z,83.88
2017-10-07T02:42:20.697Z,84.40
2017-10-07T02:43:20.610Z,84.11
2017-10-07T02:44:20.526Z,83.64
2017-10-07T02:45:20.440Z,83.25
2017-10-07T02:46:20.357Z,83.25
2017-10-07T02:47:20.268Z,83.83
2017-10-07T02:48:20.185Z,83.73
2017-10-07T02:49:20.104Z,83.59
2017-10-07T02:50:20.014Z,84.01
2017-10-07T02:51:19.928Z,83.83
2017-10-07T02:52:19.845Z,83.73
2017-10-07T02:53:19.762Z,83.64
2017-10-07T02:54:19.675Z,84.11
2017-10-07T02:55:19.587Z,83.50
2017-10-07T02:56:19.498Z,83.92
2017-10-07T02:57:19.435Z,84.20
2017-10-07T02:58:19.336Z,84.01
2017-10-07T02:59:19.256Z,83.25
2017-10-07T03:00:19.166Z,83.25
2017-10-07T03:01:19.078Z,82.87
2017-10-07T03:02:18.993Z,83.54
2017-10-07T03:03:18.906Z,83.35
2017-10-07T03:04:18.823Z,83.06
2017-10-07T03:05:18.738Z,83.54
2017-10-07T03:06:18.658Z,83.44
2017-10-07T03:07:18.570Z,83.06
2017-10-07T03:08:18.485Z,83.06
2017-10-07T03:09:18.398Z,83.16
2017-10-07T03:10:18.315Z,83.06
2017-10-07T03:11:18.228Z,82.87
2017-10-07T03:12:18.145Z,82.59
2017-10-07T03:13:19.166Z,82.49
2017-10-07T03:14:17.980Z,83.54
2017-10-07T03:15:17.893Z,82.97
2017-10-07T03:16:17.803Z,82.68
2017-10-07T03:17:17.724Z,82.49
2017-10-07T03:18:17.638Z,82.78
2017-10-07T03:19:17.549Z,83.16
2017-10-07T03:20:17.472Z,82.97
2017-10-07T03:21:17.383Z,83.69
2017-10-07T03:22:17.296Z,83.69
2017-10-07T03:23:17.209Z,83.92
2017-10-07T03:24:17.126Z,83.64
2017-10-07T03:25:17.067Z,83.06
2017-10-07T03:26:16.991Z,82.97
2017-10-07T03:27:16.893Z,84.45
2017-10-07T03:28:16.788Z,85.02
2017-10-07T03:29:16.704Z,85.02
2017-10-07T03:30:16.631Z,83.92
2017-10-07T03:31:16.553Z,83.83
2017-10-07T03:32:16.445Z,83.54
2017-10-07T03:33:16.357Z,82.97
2017-10-07T03:34:16.276Z,83.59
2017-10-07T03:35:16.205Z,83.83
2017-10-07T03:36:16.102Z,82.97
2017-10-07T03:37:16.019Z,83.64
2017-10-07T03:38:15.932Z,83.64
2017-10-07T03:39:15.852Z,83.78
2017-10-07T03:40:15.763Z,83.54
2017-10-07T03:41:15.683Z,83.64
2017-10-07T03:42:15.594Z,83.44
2017-10-07T03:43:15.510Z,83.06
2017-10-07T03:44:15.441Z,83.25
2017-10-07T03:45:15.374Z,83.16
2017-10-07T03:46:15.289Z,83.16
2017-10-07T03:47:15.167Z,83.59
2017-10-07T03:48:15.092Z,83.59
2017-10-07T03:49:14.997Z,83.69
2017-10-07T03:50:14.915Z,84.16
2017-10-07T03:51:14.853Z,84.16
2017-10-07T03:52:14.751Z,84.45
2017-10-07T03:53:14.657Z,83.59
2017-10-07T03:54:14.569Z,84.07
2017-10-07T03:55:14.494Z,84.01
2017-10-07T03:56:14.413Z,83.54
2017-10-07T03:57:14.327Z,83.16
2017-10-07T03:58:14.232Z,83.78
2017-10-07T03:59:14.154Z,83.69
2017-10-07T04:00:14.062Z,83.92
2017-10-07T04:01:13.990Z,83.64
2017-10-07T04:02:13.898Z,83.16
2017-10-07T04:03:13.808Z,83.44
2017-10-07T04:04:13.724Z,83.69
2017-10-07T04:05:13.641Z,85.12
2017-10-07T04:06:13.552Z,85.02
2017-10-07T04:07:13.468Z,84.45
2017-10-07T04:08:13.407Z,84.11
2017-10-07T04:09:13.296Z,84.20
2017-10-07T04:10:13.215Z,83.35
2017-10-07T04:11:13.124Z,83.73
2017-10-07T04:12:13.051Z,83.64
2017-10-07T04:13:12.960Z,83.25
2017-10-07T04:14:12.876Z,83.16
2017-10-07T04:15:12.790Z,82.97
2017-10-07T04:16:12.707Z,83.54
2017-10-07T04:17:12.625Z,83.54
2017-10-07T04:18:12.547Z,82.87
2017-10-07T04:19:12.473Z,83.16
2017-10-07T04:20:12.364Z,82.49
2017-10-07T04:21:12.306Z,82.59
2017-10-07T04:22:12.200Z,82.97
2017-10-07T04:23:12.110Z,82.97
2017-10-07T04:24:12.031Z,82.78
2017-10-07T04:25:11.947Z,82.11
2017-10-07T04:26:11.871Z,82.68
2017-10-07T04:27:11.774Z,82.97
2017-10-07T04:28:11.687Z,82.68
2017-10-07T04:29:11.608Z,82.78
2017-10-07T04:30:11.525Z,82.97
2017-10-07T04:31:11.434Z,82.97
2017-10-07T04:32:11.348Z,82.49
2017-10-07T04:33:11.277Z,82.59
2017-10-07T04:34:11.187Z,82.35
2017-10-07T04:35:11.110Z,83.97
2017-10-07T04:36:11.010Z,83.69
2017-10-07T04:37:10.927Z,83.35
2017-10-07T04:38:10.845Z,83.06
2017-10-07T04:39:10.758Z,82.59
2017-10-07T04:40:10.675Z,82.54
2017-10-07T04:41:10.586Z,82.59
2017-10-07T04:42:10.501Z,82.87
2017-10-07T04:43:10.418Z,82.83
2017-10-07T04:44:10.335Z,82.97
2017-10-07T04:45:10.248Z,82.11
2017-10-07T04:46:10.163Z,81.54
2017-10-07T04:47:10.076Z,81.82
2017-10-07T04:48:09.991Z,82.30
2017-10-07T04:49:09.936Z,82.40
2017-10-07T04:50:09.831Z,82.01
2017-10-07T04:51:09.738Z,82.11
2017-10-07T04:52:09.652Z,82.11
2017-10-07T04:53:09.577Z,82.20
2017-10-07T04:54:09.492Z,81.82
2017-10-07T04:55:09.398Z,81.82
2017-10-07T04:56:09.310Z,82.11
2017-10-07T04:57:09.230Z,82.30
2017-10-07T04:58:09.146Z,82.11
2017-10-07T04:59:09.055Z,81.97
2017-10-07T05:00:08.976Z,82.45
2017-10-07T05:01:08.888Z,82.92
2017-10-07T05:02:08.804Z,83.02
2017-10-07T05:03:08.741Z,82.68
2017-10-07T05:04:08.632Z,82.54
2017-10-07T05:05:08.544Z,83.12
2017-10-07T05:06:08.460Z,82.83
2017-10-07T05:07:08.378Z,83.50
2017-10-07T05:08:08.294Z,82.92
2017-10-07T05:09:08.208Z,83.21
2017-10-07T05:10:08.125Z,82.73
2017-10-07T05:11:08.044Z,82.59
2017-10-07T05:12:07.955Z,82.40
2017-10-07T05:13:07.870Z,82.30
2017-10-07T05:14:07.785Z,82.83
2017-10-07T05:15:07.696Z,82.87
2017-10-07T05:16:07.619Z,82.92
2017-10-07T05:17:07.535Z,82.54
2017-10-07T05:18:07.448Z,83.02
2017-10-07T05:19:07.355Z,83.02
2017-10-07T05:20:07.271Z,83.12
2017-10-07T05:21:07.190Z,83.12
2017-10-07T05:22:07.116Z,83.31
2017-10-07T05:23:07.018Z,83.02
2017-10-07T05:24:06.933Z,83.02
2017-10-07T05:25:06.861Z,82.64
2017-10-07T05:26:06.767Z,83.02
2017-10-07T05:27:06.683Z,82.64
2017-10-07T05:28:06.595Z,82.73
2017-10-07T05:29:06.507Z,83.02
2017-10-07T05:30:06.450Z,83.02
2017-10-07T05:31:06.360Z,82.92
2017-10-07T05:32:06.263Z,83.12
2017-10-07T05:33:06.172Z,83.69
2017-10-07T05:34:06.104Z,83.50
2017-10-07T05:35:06.012Z,83.40
2017-10-07T05:36:05.915Z,84.60
2017-10-07T05:37:05.843Z,84.98
2017-10-07T05:38:05.741Z,84.16
2017-10-07T05:39:05.659Z,83.78
2017-10-07T05:40:05.589Z,83.69
2017-10-07T05:41:05.493Z,83.78
2017-10-07T05:42:05.409Z,83.50
2017-10-07T05:43:05.315Z,83.50
2017-10-07T05:44:05.238Z,83.40
2017-10-07T05:45:05.158Z,83.50
2017-10-07T05:46:05.069Z,83.78
2017-10-07T05:47:04.982Z,83.78
2017-10-07T05:48:04.898Z,83.69
2017-10-07T05:49:04.812Z,83.59
2017-10-07T05:50:04.739Z,83.88
2017-10-07T05:51:04.639Z,84.16
2017-10-07T05:52:04.550Z,83.78
2017-10-07T05:53:04.469Z,83.97
2017-10-07T05:54:04.384Z,83.40
2017-10-07T05:55:04.311Z,83.78
2017-10-07T05:56:04.216Z,83.88
2017-10-07T05:57:04.132Z,83.88
2017-10-07T05:58:04.046Z,84.07
2017-10-07T05:59:03.971Z,83.88
2017-10-07T06:00:03.901Z,83.78
2017-10-07T06:01:03.789Z,83.97
2017-10-07T06:02:03.706Z,84.16
2017-10-07T06:03:03.622Z,85.08
2017-10-07T06:04:03.533Z,84.83
2017-10-07T06:05:03.457Z,84.69
2017-10-07T06:06:03.364Z,85.46
2017-10-07T06:07:03.277Z,85.64
2017-10-07T06:08:03.195Z,84.83
2017-10-07T06:09:03.113Z,84.45
2017-10-07T06:10:03.024Z,84.83
2017-10-07T06:11:02.939Z,83.88
2017-10-07T06:12:02.846Z,83.88
2017-10-07T06:13:02.767Z,83.59
2017-10-07T06:14:02.680Z,84.16
2017-10-07T06:15:02.592Z,83.69
2017-10-07T06:16:02.522Z,83.02
2017-10-07T06:17:02.432Z,83.78
2017-10-07T06:18:02.338Z,83.78
2017-10-07T06:19:02.253Z,83.78
2017-10-07T06:20:02.177Z,83.31
2017-10-07T06:21:02.084Z,83.16
2017-10-07T06:22:01.999Z,83.06
2017-10-07T06:23:01.915Z,83.21
2017-10-07T06:24:01.831Z,83.06
2017-10-07T06:25:01.742Z,83.06
2017-10-07T06:26:01.657Z,83.21
2017-10-07T06:27:01.577Z,82.92
2017-10-07T06:28:01.495Z,83.31
2017-10-07T06:29:01.421Z,84.16
2017-10-07T06:30:01.320Z,84.26
2017-10-07T06:31:01.245Z,83.69
2017-10-07T06:32:01.152Z,83.69
2017-10-07T06:33:01.072Z,83.50
2017-10-07T06:34:00.980Z,84.07
2017-10-07T06:35:00.904Z,83.69
2017-10-07T06:36:00.817Z,83.12
2017-10-07T06:37:00.733Z,83.02
2017-10-07T06:38:00.670Z,83.31
2017-10-07T06:39:00.557Z,83.12
2017-10-07T06:40:00.472Z,83.54
2017-10-07T06:41:00.391Z,83.06
2017-10-07T06:42:00.317Z,83.06
2017-10-07T06:43:00.222Z,83.06
2017-10-07T06:44:00.139Z,83.25
2017-10-07T06:45:00.054Z,82.97
2017-10-07T06:45:59.984Z,82.92
2017-10-07T06:46:59.880Z,83.50
2017-10-07T06:47:59.799Z,83.40
2017-10-07T06:48:59.719Z,83.54
2017-10-07T06:49:59.638Z,83.16
2017-10-07T06:50:59.553Z,82.97
2017-10-07T06:51:59.466Z,83.21
2017-10-07T06:52:59.376Z,82.92
2017-10-07T06:53:59.311Z,83.35
2017-10-07T06:54:59.213Z,82.97
2017-10-07T06:55:59.126Z,83.06
2017-10-07T06:56:59.042Z,82.78
2017-10-07T06:57:58.983Z,82.49
2017-10-07T06:58:58.883Z,82.78
2017-10-07T06:59:58.787Z,82.59
2017-10-07T07:00:58.706Z,82.68
2017-10-07T07:01:58.620Z,81.92
2017-10-07T07:02:58.537Z,81.73
2017-10-07T07:03:58.467Z,81.73
2017-10-07T07:04:58.373Z,82.20
2017-10-07T07:05:58.285Z,82.01
2017-10-07T07:06:58.199Z,81.44
2017-10-07T07:07:58.121Z,81.35
2017-10-07T07:08:58.033Z,81.25
2017-10-07T07:09:57.949Z,81.35
2017-10-07T07:10:57.860Z,81.63
2017-10-07T07:11:57.786Z,81.54
2017-10-07T07:12:57.721Z,81.35
2017-10-07T07:13:57.630Z,80.96
2017-10-07T07:14:57.527Z,81.44
2017-10-07T07:15:57.442Z,80.96
2017-10-07T07:16:57.382Z,81.06
2017-10-07T07:17:57.270Z,80.43
2017-10-07T07:18:57.192Z,80.15
2017-10-07T07:19:57.106Z,81.06
2017-10-07T07:20:57.022Z,81.44
2017-10-07T07:21:56.934Z,81.06
2017-10-07T07:22:56.851Z,80.49
2017-10-07T07:23:56.771Z,80.49
2017-10-07T07:24:56.682Z,80.96
2017-10-07T07:25:56.613Z,80.11
2017-10-07T07:26:56.518Z,80.87
2017-10-07T07:27:56.432Z,81.25
2017-10-07T07:28:56.350Z,80.53
2017-10-07T07:29:56.269Z,79.77
2017-10-07T07:30:56.178Z,80.15
2017-10-07T07:31:56.117Z,80.05
2017-10-07T07:32:56.013Z,78.85
2017-10-07T07:33:55.934Z,79.14
2017-10-07T07:34:55.849Z,78.18
2017-10-07T07:35:55.764Z,78.18
2017-10-07T07:36:55.678Z,78.37
2017-10-07T07:37:55.597Z,78.09
2017-10-07T07:38:55.513Z,77.89
2017-10-07T07:39:55.436Z,77.45
2017-10-07T07:40:55.349Z,76.60
2017-10-07T07:41:55.273Z,75.10
2017-10-07T07:42:55.188Z,75.54
2017-10-07T07:43:55.105Z,75.20
2017-10-07T07:44:55.055Z,74.82
2017-10-07T07:45:54.949Z,74.34
2017-10-07T07:46:54.863Z,74.34
2017-10-07T07:47:54.775Z,74.59
2017-10-07T07:48:54.695Z,74.82
2017-10-07T07:49:54.620Z,74.91
2017-10-07T07:50:54.539Z,73.71
2017-10-07T07:51:54.467Z,71.93
2017-10-07T07:52:54.393Z,70.68
2017-10-07T07:53:54.288Z,69.82
2017-10-07T07:54:54.214Z,69.29
2017-10-07T07:55:54.127Z,69.00
2017-10-07T07:56:54.049Z,68.80
2017-10-07T07:57:53.972Z,69.29
2017-10-07T07:58:53.892Z,69.19
2017-10-07T07:59:53.820Z,68.52
2017-10-07T08:00:53.736Z,67.88
2017-10-07T08:01:53.647Z,67.25
2017-10-07T08:02:53.568Z,65.91
2017-10-07T08:03:53.494Z,65.62
2017-10-07T08:04:53.455Z,65.42
2017-10-07T08:05:53.337Z,65.52
2017-10-07T08:06:53.251Z,64.31
2017-10-07T08:07:53.172Z,63.67
2017-10-07T08:08:53.097Z,61.78
2017-10-07T08:09:53.027Z,60.92
2017-10-07T08:10:52.937Z,60.53
2017-10-07T08:11:52.867Z,60.47
2017-10-07T08:12:52.790Z,59.80
2017-10-07T08:13:52.718Z,59.83
2017-10-07T08:14:52.638Z,58.20
2017-10-07T08:15:52.574Z,57.90
2017-10-07T08:16:52.490Z,58.96
2017-10-07T08:17:52.411Z,57.43
2017-10-07T08:18:52.340Z,57.55
2017-10-07T08:19:52.260Z,56.78
2017-10-07T08:20:52.183Z,56.01
2017-10-07T08:21:52.102Z,56.33
2017-10-07T08:22:52.038Z,55.59
2017-10-07T08:23:51.956Z,56.04
2017-10-07T08:24:51.885Z,54.99
2017-10-07T08:25:51.813Z,54.60
2017-10-07T08:26:51.737Z,54.63
2017-10-07T08:27:51.657Z,54.24
2017-10-07T08:28:51.582Z,53.13
2017-10-07T08:29:51.510Z,55.27
2017-10-07T08:30:51.455Z,53.47
2017-10-07T08:31:51.358Z,53.59
2017-10-07T08:32:51.283Z,53.21
2017-10-07T08:33:51.210Z,52.63
2017-10-07T08:34:51.134Z,52.70
2017-10-07T08:35:51.059Z,53.01
2017-10-07T08:36:50.990Z,55.60
2017-10-07T08:37:50.903Z,55.53
2017-10-07T08:38:50.827Z,54.79
2017-10-07T08:39:50.751Z,53.28
2017-10-07T08:40:50.673Z,52.99
2017-10-07T08:41:50.601Z,52.73
2017-10-07T08:42:50.534Z,51.98
2017-10-07T08:43:50.444Z,50.95
2017-10-07T08:44:50.378Z,51.56
2017-10-07T08:45:50.291Z,49.15
2017-10-07T08:46:52.631Z,48.47
2017-10-07T08:47:50.145Z,48.57
2017-10-07T08:48:50.118Z,48.90
2017-10-07T08:49:49.999Z,50.35
2017-10-07T08:50:49.919Z,50.37
2017-10-07T08:51:49.853Z,49.99
2017-10-07T08:52:49.755Z,50.15
2017-10-07T08:53:49.688Z,50.93
2017-10-07T08:54:49.620Z,51.09
2017-10-07T08:55:49.530Z,51.31
2017-10-07T08:56:49.468Z,53.68
2017-10-07T08:57:49.384Z,54.09
2017-10-07T08:58:49.308Z,53.23
2017-10-07T08:59:49.216Z,54.16
2017-10-07T09:00:49.143Z,54.61
2017-10-07T09:01:49.060Z,54.90
2017-10-07T09:02:48.982Z,55.00
2017-10-07T09:03:48.909Z,55.00
2017-10-07T09:04:48.816Z,55.35
2017-10-07T09:05:48.754Z,55.83
2017-10-07T09:06:48.661Z,57.08
2017-10-07T09:07:48.591Z,56.98
2017-10-07T09:08:48.497Z,56.51
2017-10-07T09:09:48.416Z,56.67
2017-10-07T09:10:48.365Z,57.65
2017-10-07T09:11:48.257Z,57.08
2017-10-07T09:12:48.201Z,57.59
2017-10-07T09:13:48.094Z,56.63
2017-10-07T09:14:48.012Z,55.86
2017-10-07T09:15:47.933Z,56.63
2017-10-07T09:16:47.856Z,56.27
2017-10-07T09:17:47.774Z,56.37
2017-10-07T09:18:47.692Z,55.10
2017-10-07T09:19:47.615Z,56.63
2017-10-07T09:20:47.531Z,56.34
2017-10-07T09:21:48.139Z,55.96
2017-10-07T09:22:47.368Z,56.27
2017-10-07T09:23:47.290Z,56.66
2017-10-07T09:24:47.222Z,56.85
2017-10-07T09:25:47.130Z,56.27
2017-10-07T09:26:47.053Z,56.08
2017-10-07T09:27:46.969Z,56.05
2017-10-07T09:28:46.897Z,56.53
2017-10-07T09:29:46.814Z,55.64
2017-10-07T09:30:46.728Z,55.93
2017-10-07T09:31:46.678Z,55.83
2017-10-07T09:32:46.565Z,56.89
2017-10-07T09:33:46.488Z,56.67
2017-10-07T09:34:46.414Z,56.70
2017-10-07T09:35:46.326Z,56.96
2017-10-07T09:36:46.248Z,57.92
2017-10-07T09:37:46.173Z,57.65
2017-10-07T09:38:46.081Z,57.37
2017-10-07T09:39:46.001Z,56.98
2017-10-07T09:40:45.926Z,57.37
2017-10-07T09:41:45.849Z,57.65
2017-10-07T09:42:45.767Z,57.18
2017-10-07T09:43:45.679Z,57.72
2017-10-07T09:44:45.617Z,58.01
2017-10-07T09:45:45.519Z,58.87
2017-10-07T09:46:45.438Z,58.49
2017-10-07T09:47:45.355Z,58.78
2017-10-07T09:48:45.278Z,58.87
2017-10-07T09:49:45.198Z,58.71
2017-10-07T09:50:45.113Z,58.62
2017-10-07T09:51:45.033Z,57.75
2017-10-07T09:52:44.961Z,57.43
2017-10-07T09:53:44.873Z,58.39
2017-10-07T09:54:44.794Z,59.45
2017-10-07T09:55:44.720Z,59.55
2017-10-07T09:56:44.630Z,58.78
2017-10-07T09:57:44.560Z,57.98
2017-10-07T09:58:44.499Z,60.32
2017-10-07T09:59:44.413Z,61.76
2017-10-07T10:00:44.306Z,61.72
2017-10-07T10:01:44.221Z,60.67
2017-10-07T10:02:44.147Z,60.70
2017-10-07T10:03:44.060Z,60.79
2017-10-07T10:04:43.985Z,59.42
2017-10-07T10:05:43.900Z,60.12
2017-10-07T10:06:43.839Z,60.03
2017-10-07T10:07:43.732Z,59.74
2017-10-07T10:08:43.645Z,59.93
2017-10-07T10:09:43.579Z,59.36
2017-10-07T10:10:43.519Z,60.03
2017-10-07T10:11:43.406Z,59.55
2017-10-07T10:12:43.329Z,59.93
2017-10-07T10:13:43.256Z,59.74
2017-10-07T10:14:43.170Z,59.42
2017-10-07T10:15:43.083Z,59.13
2017-10-07T10:16:43.012Z,59.90
2017-10-07T10:17:42.955Z,60.28
2017-10-07T10:18:42.841Z,60.47
2017-10-07T10:19:42.764Z,60.67
2017-10-07T10:20:42.715Z,60.28
2017-10-07T10:21:42.599Z,60.83
2017-10-07T10:22:42.535Z,61.37
2017-10-07T10:23:42.447Z,61.02
2017-10-07T10:24:42.362Z,60.64
2017-10-07T10:25:42.276Z,60.93
2017-10-07T10:26:42.193Z,61.40
2017-10-07T10:27:42.136Z,60.28
2017-10-07T10:28:42.053Z,59.90
2017-10-07T10:29:41.952Z,59.33
2017-10-07T10:30:41.869Z,59.45
2017-10-07T10:31:41.790Z,58.75
2017-10-07T10:32:41.704Z,59.33
2017-10-07T10:33:41.633Z,60.19
2017-10-07T10:34:41.563Z,60.67
2017-10-07T10:35:41.462Z,59.52
2017-10-07T10:36:41.378Z,58.46
2017-10-07T10:37:41.297Z,59.61
2017-10-07T10:38:41.223Z,59.42
2017-10-07T10:39:41.133Z,59.52
2017-10-07T10:40:41.051Z,59.45
2017-10-07T10:41:40.979Z,59.55
2017-10-07T10:42:40.903Z,58.39
2017-10-07T10:43:40.807Z,58.11
2017-10-07T10:44:40.733Z,58.97
2017-10-07T10:45:40.661Z,58.30
2017-10-07T10:46:40.571Z,58.78
2017-10-07T10:47:40.490Z,59.64
2017-10-07T10:48:40.413Z,58.78
2017-10-07T10:49:40.335Z,58.49
2017-10-07T10:50:40.265Z,58.87
2017-10-07T10:51:40.188Z,57.63
2017-10-07T10:52:40.089Z,58.84
2017-10-07T10:53:40.014Z,59.04
2017-10-07T10:54:39.967Z,58.94
2017-10-07T10:55:39.848Z,58.78
2017-10-07T10:56:39.775Z,58.69
2017-10-07T10:57:39.688Z,58.81
2017-10-07T10:58:39.615Z,58.01
2017-10-07T10:59:39.522Z,57.65
2017-10-07T11:00:39.460Z,56.67
2017-10-07T11:01:39.365Z,57.85
2017-10-07T11:02:39.284Z,57.37
2017-10-07T11:03:39.218Z,56.79
2017-10-07T11:04:39.124Z,56.15
2017-10-07T11:05:39.048Z,55.67
2017-10-07T11:06:38.971Z,55.38
2017-10-07T11:07:38.887Z,54.52
2017-10-07T11:08:38.813Z,55.16
2017-10-07T11:09:38.797Z,54.97
2017-10-07T11:10:38.654Z,55.83
2017-10-07T11:11:38.571Z,55.67
2017-10-07T11:12:38.495Z,55.96
2017-10-07T11:13:38.414Z,56.12
2017-10-07T11:14:38.343Z,55.45
2017-10-07T11:15:38.261Z,55.68
2017-10-07T11:16:38.195Z,56.48
2017-10-07T11:17:38.099Z,55.71
2017-10-07T11:18:38.019Z,55.30
2017-10-07T11:19:37.937Z,55.97
2017-10-07T11:20:37.872Z,56.67
2017-10-07T11:21:37.774Z,56.57
2017-10-07T11:22:37.690Z,56.29
2017-10-07T11:23:37.619Z,56.00
2017-10-07T11:24:37.532Z,55.52
2017-10-07T11:25:37.452Z,56.00
2017-10-07T11:26:37.370Z,56.26
2017-10-07T11:27:37.307Z,56.74
2017-10-07T11:28:37.207Z,56.93
2017-10-07T11:29:37.141Z,56.83
2017-10-07T11:30:37.045Z,57.03
2017-10-07T11:31:36.960Z,56.54
2017-10-07T11:32:36.912Z,56.83
2017-10-07T11:33:36.803Z,57.31
2017-10-07T11:34:36.765Z,57.72
2017-10-07T11:35:36.658Z,55.71
2017-10-07T11:36:36.553Z,55.42
2017-10-07T11:37:36.496Z,54.94
2017-10-07T11:38:36.410Z,55.74
2017-10-07T11:39:36.313Z,55.33
2017-10-07T11:40:36.240Z,55.26
2017-10-07T11:41:36.157Z,55.33
2017-10-07T11:42:36.069Z,54.85
2017-10-07T11:43:35.987Z,54.94
2017-10-07T11:44:35.911Z,54.85
2017-10-07T11:45:35.830Z,55.33
2017-10-07T11:46:35.744Z,54.66
2017-10-07T11:47:35.667Z,54.97
2017-10-07T11:48:35.581Z,54.58
2017-10-07T11:49:35.504Z,54.88
2017-10-07T11:50:35.421Z,54.78
2017-10-07T11:51:35.339Z,54.04
2017-10-07T11:52:35.257Z,53.27
2017-10-07T11:53:35.176Z,53.24
2017-10-07T11:54:35.109Z,53.63
2017-10-07T11:55:35.012Z,53.15
2017-10-07T11:56:34.929Z,53.15
2017-10-07T11:57:34.852Z,53.31
2017-10-07T11:58:34.770Z,54.08
2017-10-07T11:59:34.690Z,54.39
2017-10-07T12:00:34.606Z,54.30
2017-10-07T12:01:34.532Z,54.68
2017-10-07T12:02:34.439Z,54.30
2017-10-07T12:03:34.366Z,54.11
2017-10-07T12:04:34.288Z,55.07
2017-10-07T12:05:34.199Z,54.17
2017-10-07T12:06:34.126Z,55.42
2017-10-07T12:07:34.035Z,55.04
2017-10-07T12:08:33.952Z,54.66
2017-10-07T12:09:33.874Z,55.04
2017-10-07T12:10:33.797Z,55.80
2017-10-07T12:11:33.715Z,54.94
2017-10-07T12:12:33.638Z,55.11
2017-10-07T12:13:33.544Z,55.33
2017-10-07T12:14:33.468Z,54.94
2017-10-07T12:15:33.385Z,55.01
2017-10-07T12:16:33.299Z,55.13
2017-10-07T12:17:33.221Z,55.13
2017-10-07T12:18:33.139Z,55.33
2017-10-07T12:19:33.094Z,55.30
2017-10-07T12:20:32.979Z,55.30
2017-10-07T12:21:32.900Z,54.63
2017-10-07T12:22:32.815Z,54.05
2017-10-07T12:23:32.729Z,54.15
2017-10-07T12:24:32.652Z,53.28
2017-10-07T12:25:32.596Z,53.96
2017-10-07T12:26:32.493Z,54.24
2017-10-07T12:27:32.405Z,53.28
2017-10-07T12:28:32.326Z,53.38
2017-10-07T12:29:32.246Z,53.00
2017-10-07T12:30:32.163Z,53.00
2017-10-07T12:31:32.080Z,53.19
2017-10-07T12:32:32.001Z,52.97
2017-10-07T12:33:31.922Z,53.19
2017-10-07T12:34:31.833Z,53.28
2017-10-07T12:35:31.748Z,53.16
2017-10-07T12:36:31.662Z,54.60
2017-10-07T12:37:31.585Z,53.26
2017-10-07T12:38:31.504Z,53.93
2017-10-07T12:39:31.425Z,53.93
2017-10-07T12:40:31.339Z,53.93
2017-10-07T12:41:31.258Z,53.26
2017-10-07T12:42:31.183Z,54.03
2017-10-07T12:43:31.095Z,53.36
2017-10-07T12:44:31.026Z,53.64
2017-10-07T12:45:30.928Z,54.12
2017-10-07T12:46:30.848Z,54.50
2017-10-07T12:47:30.771Z,54.03
2017-10-07T12:48:30.684Z,54.32
2017-10-07T12:49:30.603Z,53.93
2017-10-07T12:50:30.536Z,54.32
2017-10-07T12:51:30.434Z,53.83